sensor_id;sensor_type;location;lat;lon;timestamp;pressure;altitude;pressure_sealevel;temperature
13570;BMP180;6856;51.460;7.158;2023-06-22T00:01:22;100742.00;;;28.10
13570;BMP180;6856;51.460;7.158;2023-06-22T00:03:57;100745.00;;;28.10
13570;BMP180;6856;51.460;7.158;2023-06-22T00:06:32;100758.00;;;28.10
13570;BMP180;6856;51.460;7.158;2023-06-22T00:09:07;100747.00;;;28.10
13570;BMP180;6856;51.460;7.158;2023-06-22T00:11:47;100739.00;;;28.00
13570;BMP180;6856;51.460;7.158;2023-06-22T00:14:23;100756.00;;;28.00
13570;BMP180;6856;51.460;7.158;2023-06-22T00:16:57;100754.00;;;28.00
13570;BMP180;6856;51.460;7.158;2023-06-22T00:19:31;100755.00;;;27.90
13570;BMP180;6856;51.460;7.158;2023-06-22T00:22:07;100755.00;;;27.90
13570;BMP180;6856;51.460;7.158;2023-06-22T00:24:43;100755.00;;;27.90
13570;BMP180;6856;51.460;7.158;2023-06-22T00:27:18;100765.00;;;27.80
13570;BMP180;6856;51.460;7.158;2023-06-22T00:29:54;100764.00;;;27.80
13570;BMP180;6856;51.460;7.158;2023-06-22T00:32:29;100755.00;;;27.80
13570;BMP180;6856;51.460;7.158;2023-06-22T00:35:04;100761.00;;;27.80
13570;BMP180;6856;51.460;7.158;2023-06-22T00:37:39;100754.00;;;27.70
13570;BMP180;6856;51.460;7.158;2023-06-22T00:40:18;100744.00;;;27.70
13570;BMP180;6856;51.460;7.158;2023-06-22T00:42:55;100753.00;;;27.70
13570;BMP180;6856;51.460;7.158;2023-06-22T00:45:30;100743.00;;;27.60
13570;BMP180;6856;51.460;7.158;2023-06-22T00:48:06;100751.00;;;27.60
13570;BMP180;6856;51.460;7.158;2023-06-22T00:50:41;100753.00;;;27.60
13570;BMP180;6856;51.460;7.158;2023-06-22T00:53:16;100687.00;;;27.60
13570;BMP180;6856;51.460;7.158;2023-06-22T00:55:51;100741.00;;;27.60
13570;BMP180;6856;51.460;7.158;2023-06-22T00:58:26;100748.00;;;27.60
13570;BMP180;6856;51.460;7.158;2023-06-22T01:01:01;100750.00;;;27.50
13570;BMP180;6856;51.460;7.158;2023-06-22T01:03:36;100743.00;;;27.50
13570;BMP180;6856;51.460;7.158;2023-06-22T01:06:19;100736.00;;;27.50
13570;BMP180;6856;51.460;7.158;2023-06-22T01:09:05;100711.00;;;27.50
13570;BMP180;6856;51.460;7.158;2023-06-22T01:11:45;100742.00;;;27.50
13570;BMP180;6856;51.460;7.158;2023-06-22T01:14:27;100738.00;;;27.50
13570;BMP180;6856;51.460;7.158;2023-06-22T01:17:05;100739.00;;;27.50
13570;BMP180;6856;51.460;7.158;2023-06-22T01:19:46;100723.00;;;27.50
13570;BMP180;6856;51.460;7.158;2023-06-22T01:22:33;100729.00;;;27.50
13570;BMP180;6856;51.460;7.158;2023-06-22T01:25:18;100729.00;;;27.50
13570;BMP180;6856;51.460;7.158;2023-06-22T01:28:16;100714.00;;;27.50
13570;BMP180;6856;51.460;7.158;2023-06-22T01:30:53;100722.00;;;27.50
13570;BMP180;6856;51.460;7.158;2023-06-22T01:33:43;100722.00;;;27.40
13570;BMP180;6856;51.460;7.158;2023-06-22T01:36:21;100699.00;;;27.40
13570;BMP180;6856;51.460;7.158;2023-06-22T01:38:57;100722.00;;;27.40
13570;BMP180;6856;51.460;7.158;2023-06-22T01:41:37;100714.00;;;27.40
13570;BMP180;6856;51.460;7.158;2023-06-22T01:44:13;100686.00;;;27.30
13570;BMP180;6856;51.460;7.158;2023-06-22T01:46:49;100697.00;;;27.30
13570;BMP180;6856;51.460;7.158;2023-06-22T01:49:26;100670.00;;;27.30
13570;BMP180;6856;51.460;7.158;2023-06-22T01:52:00;100725.00;;;27.30
13570;BMP180;6856;51.460;7.158;2023-06-22T01:54:34;100706.00;;;27.30
13570;BMP180;6856;51.460;7.158;2023-06-22T01:57:08;100714.00;;;27.30
13570;BMP180;6856;51.460;7.158;2023-06-22T01:59:59;100714.00;;;27.30
13570;BMP180;6856;51.460;7.158;2023-06-22T02:02:44;100703.00;;;27.30
13570;BMP180;6856;51.460;7.158;2023-06-22T02:05:24;100717.00;;;27.30
13570;BMP180;6856;51.460;7.158;2023-06-22T02:08:09;100716.00;;;27.30
13570;BMP180;6856;51.460;7.158;2023-06-22T02:10:45;100723.00;;;27.30
13570;BMP180;6856;51.460;7.158;2023-06-22T02:13:20;100718.00;;;27.30
13570;BMP180;6856;51.460;7.158;2023-06-22T02:15:56;100690.00;;;27.30
13570;BMP180;6856;51.460;7.158;2023-06-22T02:18:32;100724.00;;;27.30
13570;BMP180;6856;51.460;7.158;2023-06-22T02:21:08;100715.00;;;27.30
13570;BMP180;6856;51.460;7.158;2023-06-22T02:23:43;100722.00;;;27.30
13570;BMP180;6856;51.460;7.158;2023-06-22T02:26:18;100724.00;;;27.30
13570;BMP180;6856;51.460;7.158;2023-06-22T02:28:53;100715.00;;;27.30
13570;BMP180;6856;51.460;7.158;2023-06-22T02:31:27;100711.00;;;27.30
13570;BMP180;6856;51.460;7.158;2023-06-22T02:34:04;100702.00;;;27.20
13570;BMP180;6856;51.460;7.158;2023-06-22T02:36:39;100700.00;;;27.20
13570;BMP180;6856;51.460;7.158;2023-06-22T02:39:13;100698.00;;;27.20
13570;BMP180;6856;51.460;7.158;2023-06-22T02:41:49;100668.00;;;27.20
13570;BMP180;6856;51.460;7.158;2023-06-22T02:44:24;100692.00;;;27.20
13570;BMP180;6856;51.460;7.158;2023-06-22T02:46:59;100681.00;;;27.20
13570;BMP180;6856;51.460;7.158;2023-06-22T02:49:38;100668.00;;;27.20
13570;BMP180;6856;51.460;7.158;2023-06-22T02:52:12;100685.00;;;27.20
13570;BMP180;6856;51.460;7.158;2023-06-22T02:54:46;100677.00;;;27.20
13570;BMP180;6856;51.460;7.158;2023-06-22T02:57:21;100683.00;;;27.20
13570;BMP180;6856;51.460;7.158;2023-06-22T02:59:55;100661.00;;;27.20
13570;BMP180;6856;51.460;7.158;2023-06-22T03:02:30;100653.00;;;27.20
13570;BMP180;6856;51.460;7.158;2023-06-22T03:05:08;100655.00;;;27.20
13570;BMP180;6856;51.460;7.158;2023-06-22T03:07:46;100670.00;;;27.20
13570;BMP180;6856;51.460;7.158;2023-06-22T03:10:21;100655.00;;;27.20
13570;BMP180;6856;51.460;7.158;2023-06-22T03:12:55;100642.00;;;27.20
13570;BMP180;6856;51.460;7.158;2023-06-22T03:15:30;100648.00;;;27.10
13570;BMP180;6856;51.460;7.158;2023-06-22T03:18:05;100668.00;;;27.10
13570;BMP180;6856;51.460;7.158;2023-06-22T03:20:40;100665.00;;;27.10
13570;BMP180;6856;51.460;7.158;2023-06-22T03:23:15;100673.00;;;27.10
13570;BMP180;6856;51.460;7.158;2023-06-22T03:25:50;100668.00;;;27.10
13570;BMP180;6856;51.460;7.158;2023-06-22T03:28:24;100672.00;;;27.00
13570;BMP180;6856;51.460;7.158;2023-06-22T03:30:59;100666.00;;;27.10
13570;BMP180;6856;51.460;7.158;2023-06-22T03:33:36;100663.00;;;27.10
13570;BMP180;6856;51.460;7.158;2023-06-22T03:36:11;100655.00;;;27.00
13570;BMP180;6856;51.460;7.158;2023-06-22T03:38:49;100650.00;;;27.00
13570;BMP180;6856;51.460;7.158;2023-06-22T03:41:27;100662.00;;;27.00
13570;BMP180;6856;51.460;7.158;2023-06-22T03:44:01;100662.00;;;27.00
13570;BMP180;6856;51.460;7.158;2023-06-22T03:46:35;100641.00;;;27.00
13570;BMP180;6856;51.460;7.158;2023-06-22T03:49:10;100663.00;;;27.00
13570;BMP180;6856;51.460;7.158;2023-06-22T03:51:46;100651.00;;;26.90
13570;BMP180;6856;51.460;7.158;2023-06-22T03:54:20;100627.00;;;26.90
13570;BMP180;6856;51.460;7.158;2023-06-22T03:56:54;100601.00;;;26.90
13570;BMP180;6856;51.460;7.158;2023-06-22T03:59:31;100636.00;;;26.90
13570;BMP180;6856;51.460;7.158;2023-06-22T04:02:06;100634.00;;;26.90
13570;BMP180;6856;51.460;7.158;2023-06-22T04:04:40;100641.00;;;26.80
13570;BMP180;6856;51.460;7.158;2023-06-22T04:07:16;100613.00;;;26.80
13570;BMP180;6856;51.460;7.158;2023-06-22T04:09:51;100631.00;;;26.80
13570;BMP180;6856;51.460;7.158;2023-06-22T04:12:25;100618.00;;;26.80
13570;BMP180;6856;51.460;7.158;2023-06-22T04:15:00;100624.00;;;26.80
13570;BMP180;6856;51.460;7.158;2023-06-22T04:17:35;100638.00;;;26.80
13570;BMP180;6856;51.460;7.158;2023-06-22T04:20:10;100648.00;;;26.70
13570;BMP180;6856;51.460;7.158;2023-06-22T04:22:46;100631.00;;;26.70
13570;BMP180;6856;51.460;7.158;2023-06-22T04:25:24;100646.00;;;26.70
13570;BMP180;6856;51.460;7.158;2023-06-22T04:27:58;100629.00;;;26.70
13570;BMP180;6856;51.460;7.158;2023-06-22T04:30:38;100603.00;;;26.70
13570;BMP180;6856;51.460;7.158;2023-06-22T04:33:19;100651.00;;;26.70
13570;BMP180;6856;51.460;7.158;2023-06-22T04:35:57;100605.00;;;26.60
13570;BMP180;6856;51.460;7.158;2023-06-22T04:38:35;100583.00;;;26.70
13570;BMP180;6856;51.460;7.158;2023-06-22T04:41:09;100602.00;;;26.60
13570;BMP180;6856;51.460;7.158;2023-06-22T04:43:47;100658.00;;;26.60
13570;BMP180;6856;51.460;7.158;2023-06-22T04:46:26;100617.00;;;26.60
13570;BMP180;6856;51.460;7.158;2023-06-22T04:49:00;100644.00;;;26.60
13570;BMP180;6856;51.460;7.158;2023-06-22T04:51:39;100647.00;;;26.60
13570;BMP180;6856;51.460;7.158;2023-06-22T04:54:17;100646.00;;;26.60
13570;BMP180;6856;51.460;7.158;2023-06-22T04:56:51;100640.00;;;26.60
13570;BMP180;6856;51.460;7.158;2023-06-22T04:59:31;100636.00;;;26.60
13570;BMP180;6856;51.460;7.158;2023-06-22T05:02:05;100641.00;;;26.70
13570;BMP180;6856;51.460;7.158;2023-06-22T05:04:40;100640.00;;;26.60
13570;BMP180;6856;51.460;7.158;2023-06-22T05:07:15;100641.00;;;26.60
13570;BMP180;6856;51.460;7.158;2023-06-22T05:09:51;100616.00;;;26.60
13570;BMP180;6856;51.460;7.158;2023-06-22T05:12:27;100645.00;;;26.60
13570;BMP180;6856;51.460;7.158;2023-06-22T05:15:01;100639.00;;;26.60
13570;BMP180;6856;51.460;7.158;2023-06-22T05:17:37;100625.00;;;26.60
13570;BMP180;6856;51.460;7.158;2023-06-22T05:20:17;100656.00;;;26.50
13570;BMP180;6856;51.460;7.158;2023-06-22T05:22:51;100623.00;;;26.60
13570;BMP180;6856;51.460;7.158;2023-06-22T05:25:28;100641.00;;;26.60
13570;BMP180;6856;51.460;7.158;2023-06-22T05:28:05;100641.00;;;26.60
13570;BMP180;6856;51.460;7.158;2023-06-22T05:30:45;100643.00;;;26.60
13570;BMP180;6856;51.460;7.158;2023-06-22T05:33:20;100650.00;;;26.60
13570;BMP180;6856;51.460;7.158;2023-06-22T05:35:55;100645.00;;;26.60
13570;BMP180;6856;51.460;7.158;2023-06-22T05:38:29;100643.00;;;26.50
13570;BMP180;6856;51.460;7.158;2023-06-22T05:41:09;100646.00;;;26.60
13570;BMP180;6856;51.460;7.158;2023-06-22T05:44:09;100648.00;;;26.60
13570;BMP180;6856;51.460;7.158;2023-06-22T05:46:45;100636.00;;;26.60
13570;BMP180;6856;51.460;7.158;2023-06-22T05:49:21;100649.00;;;26.60
13570;BMP180;6856;51.460;7.158;2023-06-22T05:51:59;100655.00;;;26.60
13570;BMP180;6856;51.460;7.158;2023-06-22T05:54:33;100657.00;;;26.60
13570;BMP180;6856;51.460;7.158;2023-06-22T05:57:09;100654.00;;;26.60
13570;BMP180;6856;51.460;7.158;2023-06-22T05:59:43;100667.00;;;26.60
13570;BMP180;6856;51.460;7.158;2023-06-22T06:02:18;100642.00;;;26.60
13570;BMP180;6856;51.460;7.158;2023-06-22T06:04:52;100657.00;;;26.60
13570;BMP180;6856;51.460;7.158;2023-06-22T06:07:27;100655.00;;;26.60
13570;BMP180;6856;51.460;7.158;2023-06-22T06:10:01;100647.00;;;26.60
13570;BMP180;6856;51.460;7.158;2023-06-22T06:12:38;100624.00;;;26.60
13570;BMP180;6856;51.460;7.158;2023-06-22T06:15:12;100662.00;;;26.60
13570;BMP180;6856;51.460;7.158;2023-06-22T06:17:49;100661.00;;;26.60
13570;BMP180;6856;51.460;7.158;2023-06-22T06:20:25;100658.00;;;26.60
13570;BMP180;6856;51.460;7.158;2023-06-22T06:23:01;100650.00;;;26.60
13570;BMP180;6856;51.460;7.158;2023-06-22T06:25:37;100651.00;;;26.60
13570;BMP180;6856;51.460;7.158;2023-06-22T06:28:14;100648.00;;;26.70
13570;BMP180;6856;51.460;7.158;2023-06-22T06:30:48;100645.00;;;26.70
13570;BMP180;6856;51.460;7.158;2023-06-22T06:33:25;100636.00;;;26.70
13570;BMP180;6856;51.460;7.158;2023-06-22T06:35:59;100645.00;;;26.70
13570;BMP180;6856;51.460;7.158;2023-06-22T06:38:36;100642.00;;;26.70
13570;BMP180;6856;51.460;7.158;2023-06-22T06:41:10;100644.00;;;26.70
13570;BMP180;6856;51.460;7.158;2023-06-22T06:43:46;100625.00;;;26.70
13570;BMP180;6856;51.460;7.158;2023-06-22T06:46:22;100649.00;;;26.70
13570;BMP180;6856;51.460;7.158;2023-06-22T06:48:59;100652.00;;;26.70
13570;BMP180;6856;51.460;7.158;2023-06-22T06:51:35;100655.00;;;26.70
13570;BMP180;6856;51.460;7.158;2023-06-22T06:54:10;100651.00;;;26.70
13570;BMP180;6856;51.460;7.158;2023-06-22T06:56:44;100661.00;;;26.80
13570;BMP180;6856;51.460;7.158;2023-06-22T06:59:22;100646.00;;;26.80
13570;BMP180;6856;51.460;7.158;2023-06-22T07:01:58;100650.00;;;26.80
13570;BMP180;6856;51.460;7.158;2023-06-22T07:04:33;100642.00;;;26.80
13570;BMP180;6856;51.460;7.158;2023-06-22T07:07:08;100637.00;;;26.80
13570;BMP180;6856;51.460;7.158;2023-06-22T07:09:42;100639.00;;;26.80
13570;BMP180;6856;51.460;7.158;2023-06-22T07:12:17;100634.00;;;26.80
13570;BMP180;6856;51.460;7.158;2023-06-22T07:15:02;100601.00;;;26.80
13570;BMP180;6856;51.460;7.158;2023-06-22T07:17:38;100625.00;;;26.80
13570;BMP180;6856;51.460;7.158;2023-06-22T07:20:14;100625.00;;;26.90
13570;BMP180;6856;51.460;7.158;2023-06-22T07:22:48;100620.00;;;26.90
13570;BMP180;6856;51.460;7.158;2023-06-22T07:25:22;100631.00;;;26.90
13570;BMP180;6856;51.460;7.158;2023-06-22T07:28:02;100633.00;;;26.90
13570;BMP180;6856;51.460;7.158;2023-06-22T07:30:39;100625.00;;;26.90
13570;BMP180;6856;51.460;7.158;2023-06-22T07:33:13;100620.00;;;26.90
13570;BMP180;6856;51.460;7.158;2023-06-22T07:35:52;100622.00;;;26.90
13570;BMP180;6856;51.460;7.158;2023-06-22T07:38:26;100630.00;;;26.80
13570;BMP180;6856;51.460;7.158;2023-06-22T07:41:00;100625.00;;;26.90
13570;BMP180;6856;51.460;7.158;2023-06-22T07:43:36;100631.00;;;27.00
13570;BMP180;6856;51.460;7.158;2023-06-22T07:46:14;100598.00;;;27.00
13570;BMP180;6856;51.460;7.158;2023-06-22T07:48:48;100602.00;;;27.00
13570;BMP180;6856;51.460;7.158;2023-06-22T07:51:23;100595.00;;;27.10
13570;BMP180;6856;51.460;7.158;2023-06-22T07:53:58;100607.00;;;27.10
13570;BMP180;6856;51.460;7.158;2023-06-22T07:56:32;100601.00;;;27.10
13570;BMP180;6856;51.460;7.158;2023-06-22T07:59:06;100602.00;;;27.10
13570;BMP180;6856;51.460;7.158;2023-06-22T08:01:42;100595.00;;;27.20
13570;BMP180;6856;51.460;7.158;2023-06-22T08:04:21;100590.00;;;27.20
13570;BMP180;6856;51.460;7.158;2023-06-22T08:06:56;100589.00;;;27.20
13570;BMP180;6856;51.460;7.158;2023-06-22T08:09:33;100577.00;;;27.20
13570;BMP180;6856;51.460;7.158;2023-06-22T08:12:09;100573.00;;;27.20
13570;BMP180;6856;51.460;7.158;2023-06-22T08:14:43;100559.00;;;27.30
13570;BMP180;6856;51.460;7.158;2023-06-22T08:17:22;100562.00;;;27.30
13570;BMP180;6856;51.460;7.158;2023-06-22T08:19:57;100556.00;;;27.30
13570;BMP180;6856;51.460;7.158;2023-06-22T08:22:32;100566.00;;;27.30
13570;BMP180;6856;51.460;7.158;2023-06-22T08:25:10;100551.00;;;27.30
13570;BMP180;6856;51.460;7.158;2023-06-22T08:27:47;100567.00;;;27.30
13570;BMP180;6856;51.460;7.158;2023-06-22T08:30:22;100544.00;;;27.30
13570;BMP180;6856;51.460;7.158;2023-06-22T08:32:57;100544.00;;;27.30
13570;BMP180;6856;51.460;7.158;2023-06-22T08:35:31;100515.00;;;27.30
13570;BMP180;6856;51.460;7.158;2023-06-22T08:38:05;100531.00;;;27.40
13570;BMP180;6856;51.460;7.158;2023-06-22T08:40:40;100512.00;;;27.40
13570;BMP180;6856;51.460;7.158;2023-06-22T08:43:15;100503.00;;;27.40
13570;BMP180;6856;51.460;7.158;2023-06-22T08:45:49;100523.00;;;27.40
13570;BMP180;6856;51.460;7.158;2023-06-22T08:48:24;100510.00;;;27.40
13570;BMP180;6856;51.460;7.158;2023-06-22T08:50:58;100522.00;;;27.40
13570;BMP180;6856;51.460;7.158;2023-06-22T08:53:37;100506.00;;;27.40
13570;BMP180;6856;51.460;7.158;2023-06-22T08:56:12;100501.00;;;27.40
13570;BMP180;6856;51.460;7.158;2023-06-22T08:58:47;100528.00;;;27.40
13570;BMP180;6856;51.460;7.158;2023-06-22T09:01:22;100459.00;;;27.50
13570;BMP180;6856;51.460;7.158;2023-06-22T09:03:59;100517.00;;;27.50
13570;BMP180;6856;51.460;7.158;2023-06-22T09:06:33;100518.00;;;27.50
13570;BMP180;6856;51.460;7.158;2023-06-22T09:09:07;100520.00;;;27.50
13570;BMP180;6856;51.460;7.158;2023-06-22T09:11:41;100520.00;;;27.50
13570;BMP180;6856;51.460;7.158;2023-06-22T09:14:16;100491.00;;;27.50
13570;BMP180;6856;51.460;7.158;2023-06-22T09:16:51;100519.00;;;27.50
13570;BMP180;6856;51.460;7.158;2023-06-22T09:19:28;100485.00;;;27.60
13570;BMP180;6856;51.460;7.158;2023-06-22T09:22:03;100509.00;;;27.60
13570;BMP180;6856;51.460;7.158;2023-06-22T09:24:39;100509.00;;;27.60
13570;BMP180;6856;51.460;7.158;2023-06-22T09:27:15;100443.00;;;27.70
13570;BMP180;6856;51.460;7.158;2023-06-22T09:29:49;100505.00;;;27.70
13570;BMP180;6856;51.460;7.158;2023-06-22T09:32:24;100508.00;;;27.80
13570;BMP180;6856;51.460;7.158;2023-06-22T09:35:04;100502.00;;;27.80
13570;BMP180;6856;51.460;7.158;2023-06-22T09:37:42;100495.00;;;27.90
13570;BMP180;6856;51.460;7.158;2023-06-22T09:40:18;100417.00;;;27.90
13570;BMP180;6856;51.460;7.158;2023-06-22T09:42:52;100474.00;;;28.00
13570;BMP180;6856;51.460;7.158;2023-06-22T09:45:27;100491.00;;;28.10
13570;BMP180;6856;51.460;7.158;2023-06-22T09:48:03;100473.00;;;28.20
13570;BMP180;6856;51.460;7.158;2023-06-22T09:50:39;100486.00;;;28.30
13570;BMP180;6856;51.460;7.158;2023-06-22T09:53:14;100485.00;;;28.50
13570;BMP180;6856;51.460;7.158;2023-06-22T09:55:53;100470.00;;;28.60
13570;BMP180;6856;51.460;7.158;2023-06-22T09:58:30;100480.00;;;28.70
13570;BMP180;6856;51.460;7.158;2023-06-22T10:01:07;100478.00;;;28.70
13570;BMP180;6856;51.460;7.158;2023-06-22T10:03:48;100447.00;;;28.80
13570;BMP180;6856;51.460;7.158;2023-06-22T10:06:25;100463.00;;;28.90
13570;BMP180;6856;51.460;7.158;2023-06-22T10:09:00;100448.00;;;29.00
13570;BMP180;6856;51.460;7.158;2023-06-22T10:11:37;100411.00;;;29.10
13570;BMP180;6856;51.460;7.158;2023-06-22T10:14:10;100428.00;;;29.20
13570;BMP180;6856;51.460;7.158;2023-06-22T10:16:57;100438.00;;;29.20
13570;BMP180;6856;51.460;7.158;2023-06-22T10:19:32;100455.00;;;29.30
13570;BMP180;6856;51.460;7.158;2023-06-22T10:22:08;100444.00;;;29.40
13570;BMP180;6856;51.460;7.158;2023-06-22T10:24:43;100429.00;;;29.50
13570;BMP180;6856;51.460;7.158;2023-06-22T10:27:19;100436.00;;;29.50
13570;BMP180;6856;51.460;7.158;2023-06-22T10:29:56;100430.00;;;29.60
13570;BMP180;6856;51.460;7.158;2023-06-22T10:32:31;100439.00;;;29.70
13570;BMP180;6856;51.460;7.158;2023-06-22T10:35:07;100438.00;;;29.70
13570;BMP180;6856;51.460;7.158;2023-06-22T10:37:49;100431.00;;;29.80
13570;BMP180;6856;51.460;7.158;2023-06-22T10:40:23;100426.00;;;29.90
13570;BMP180;6856;51.460;7.158;2023-06-22T10:43:00;100427.00;;;29.90
13570;BMP180;6856;51.460;7.158;2023-06-22T10:45:34;100409.00;;;30.00
13570;BMP180;6856;51.460;7.158;2023-06-22T10:48:09;100389.00;;;30.10
13570;BMP180;6856;51.460;7.158;2023-06-22T10:50:43;100416.00;;;30.10
13570;BMP180;6856;51.460;7.158;2023-06-22T10:53:19;100425.00;;;30.20
13570;BMP180;6856;51.460;7.158;2023-06-22T10:55:54;100450.00;;;30.20
13570;BMP180;6856;51.460;7.158;2023-06-22T10:58:30;100431.00;;;30.20
13570;BMP180;6856;51.460;7.158;2023-06-22T11:01:04;100444.00;;;30.20
13570;BMP180;6856;51.460;7.158;2023-06-22T11:03:38;100454.00;;;30.20
13570;BMP180;6856;51.460;7.158;2023-06-22T11:06:14;100465.00;;;30.30
13570;BMP180;6856;51.460;7.158;2023-06-22T11:08:51;100439.00;;;30.30
13570;BMP180;6856;51.460;7.158;2023-06-22T11:11:44;100481.00;;;30.30
13570;BMP180;6856;51.460;7.158;2023-06-22T11:14:18;100476.00;;;30.30
13570;BMP180;6856;51.460;7.158;2023-06-22T11:16:53;100492.00;;;30.30
13570;BMP180;6856;51.460;7.158;2023-06-22T11:19:29;100479.00;;;30.30
13570;BMP180;6856;51.460;7.158;2023-06-22T11:22:05;100486.00;;;30.30
13570;BMP180;6856;51.460;7.158;2023-06-22T11:24:42;100484.00;;;30.30
13570;BMP180;6856;51.460;7.158;2023-06-22T11:27:16;100476.00;;;30.30
13570;BMP180;6856;51.460;7.158;2023-06-22T11:29:50;100477.00;;;30.30
13570;BMP180;6856;51.460;7.158;2023-06-22T11:32:26;100469.00;;;30.20
13570;BMP180;6856;51.460;7.158;2023-06-22T11:35:01;100412.00;;;30.20
13570;BMP180;6856;51.460;7.158;2023-06-22T11:37:36;100477.00;;;30.20
13570;BMP180;6856;51.460;7.158;2023-06-22T11:40:13;100490.00;;;30.20
13570;BMP180;6856;51.460;7.158;2023-06-22T11:42:47;100477.00;;;30.20
13570;BMP180;6856;51.460;7.158;2023-06-22T11:45:21;100488.00;;;30.10
13570;BMP180;6856;51.460;7.158;2023-06-22T11:47:55;100473.00;;;30.10
13570;BMP180;6856;51.460;7.158;2023-06-22T11:50:29;100471.00;;;30.00
13570;BMP180;6856;51.460;7.158;2023-06-22T11:53:08;100473.00;;;30.00
13570;BMP180;6856;51.460;7.158;2023-06-22T11:55:44;100481.00;;;29.90
13570;BMP180;6856;51.460;7.158;2023-06-22T11:58:18;100469.00;;;29.90
13570;BMP180;6856;51.460;7.158;2023-06-22T12:00:54;100458.00;;;29.90
13570;BMP180;6856;51.460;7.158;2023-06-22T12:03:29;100432.00;;;29.90
13570;BMP180;6856;51.460;7.158;2023-06-22T12:06:03;100444.00;;;29.80
13570;BMP180;6856;51.460;7.158;2023-06-22T12:08:38;100429.00;;;29.80
13570;BMP180;6856;51.460;7.158;2023-06-22T12:11:14;100403.00;;;29.80
13570;BMP180;6856;51.460;7.158;2023-06-22T12:13:49;100400.00;;;29.70
13570;BMP180;6856;51.460;7.158;2023-06-22T12:16:23;100395.00;;;29.70
13570;BMP180;6856;51.460;7.158;2023-06-22T12:18:57;100411.00;;;29.60
13570;BMP180;6856;51.460;7.158;2023-06-22T12:21:31;100396.00;;;29.50
13570;BMP180;6856;51.460;7.158;2023-06-22T12:24:07;100390.00;;;29.50
13570;BMP180;6856;51.460;7.158;2023-06-22T12:26:44;100379.00;;;29.40
13570;BMP180;6856;51.460;7.158;2023-06-22T12:29:19;100368.00;;;29.40
13570;BMP180;6856;51.460;7.158;2023-06-22T12:31:53;100366.00;;;29.30
13570;BMP180;6856;51.460;7.158;2023-06-22T12:34:27;100355.00;;;29.30
13570;BMP180;6856;51.460;7.158;2023-06-22T12:37:02;100339.00;;;29.20
13570;BMP180;6856;51.460;7.158;2023-06-22T12:39:40;100323.00;;;29.20
13570;BMP180;6856;51.460;7.158;2023-06-22T12:42:17;100319.00;;;29.10
13570;BMP180;6856;51.460;7.158;2023-06-22T12:44:51;100317.00;;;29.10
13570;BMP180;6856;51.460;7.158;2023-06-22T12:47:27;100330.00;;;29.00
13570;BMP180;6856;51.460;7.158;2023-06-22T12:50:01;100325.00;;;29.00
13570;BMP180;6856;51.460;7.158;2023-06-22T12:52:39;100313.00;;;29.00
13570;BMP180;6856;51.460;7.158;2023-06-22T12:55:15;100300.00;;;28.90
13570;BMP180;6856;51.460;7.158;2023-06-22T12:57:51;100280.00;;;28.90
13570;BMP180;6856;51.460;7.158;2023-06-22T13:00:28;100285.00;;;28.70
13570;BMP180;6856;51.460;7.158;2023-06-22T13:03:04;100278.00;;;28.80
13570;BMP180;6856;51.460;7.158;2023-06-22T13:05:39;100277.00;;;28.80
13570;BMP180;6856;51.460;7.158;2023-06-22T13:08:14;100283.00;;;28.80
13570;BMP180;6856;51.460;7.158;2023-06-22T13:10:47;100273.00;;;28.70
13570;BMP180;6856;51.460;7.158;2023-06-22T13:13:24;100279.00;;;28.70
13570;BMP180;6856;51.460;7.158;2023-06-22T13:15:59;100243.00;;;28.60
13570;BMP180;6856;51.460;7.158;2023-06-22T13:18:35;100267.00;;;28.60
13570;BMP180;6856;51.460;7.158;2023-06-22T13:21:10;100265.00;;;28.60
13570;BMP180;6856;51.460;7.158;2023-06-22T13:23:47;100258.00;;;28.60
13570;BMP180;6856;51.460;7.158;2023-06-22T13:26:22;100272.00;;;28.60
13570;BMP180;6856;51.460;7.158;2023-06-22T13:28:58;100230.00;;;28.60
13570;BMP180;6856;51.460;7.158;2023-06-22T13:31:32;100265.00;;;28.60
13570;BMP180;6856;51.460;7.158;2023-06-22T13:34:08;100227.00;;;28.70
13570;BMP180;6856;51.460;7.158;2023-06-22T13:36:44;100268.00;;;28.70
13570;BMP180;6856;51.460;7.158;2023-06-22T13:39:18;100267.00;;;28.70
13570;BMP180;6856;51.460;7.158;2023-06-22T13:41:52;100266.00;;;28.70
13570;BMP180;6856;51.460;7.158;2023-06-22T13:44:29;100259.00;;;28.70
13570;BMP180;6856;51.460;7.158;2023-06-22T13:47:04;100263.00;;;28.70
13570;BMP180;6856;51.460;7.158;2023-06-22T13:49:41;100197.00;;;28.80
13570;BMP180;6856;51.460;7.158;2023-06-22T13:52:15;100231.00;;;28.80
13570;BMP180;6856;51.460;7.158;2023-06-22T13:54:51;100258.00;;;28.80
13570;BMP180;6856;51.460;7.158;2023-06-22T13:57:25;100243.00;;;28.80
13570;BMP180;6856;51.460;7.158;2023-06-22T14:00:01;100216.00;;;28.90
13570;BMP180;6856;51.460;7.158;2023-06-22T14:02:37;100222.00;;;28.90
13570;BMP180;6856;51.460;7.158;2023-06-22T14:05:12;100236.00;;;29.00
13570;BMP180;6856;51.460;7.158;2023-06-22T14:07:47;100226.00;;;29.00
13570;BMP180;6856;51.460;7.158;2023-06-22T14:10:22;100232.00;;;29.00
13570;BMP180;6856;51.460;7.158;2023-06-22T14:12:56;100214.00;;;29.00
13570;BMP180;6856;51.460;7.158;2023-06-22T14:15:34;100211.00;;;29.00
13570;BMP180;6856;51.460;7.158;2023-06-22T14:18:08;100206.00;;;29.00
13570;BMP180;6856;51.460;7.158;2023-06-22T14:20:48;100186.00;;;29.00
13570;BMP180;6856;51.460;7.158;2023-06-22T14:23:22;100203.00;;;29.00
13570;BMP180;6856;51.460;7.158;2023-06-22T14:25:58;100201.00;;;28.90
13570;BMP180;6856;51.460;7.158;2023-06-22T14:28:34;100204.00;;;28.90
13570;BMP180;6856;51.460;7.158;2023-06-22T14:31:10;100144.00;;;28.90
13570;BMP180;6856;51.460;7.158;2023-06-22T14:33:47;100189.00;;;28.90
13570;BMP180;6856;51.460;7.158;2023-06-22T14:36:23;100177.00;;;28.90
13570;BMP180;6856;51.460;7.158;2023-06-22T14:38:57;100203.00;;;28.70
13570;BMP180;6856;51.460;7.158;2023-06-22T14:41:32;100200.00;;;28.60
13570;BMP180;6856;51.460;7.158;2023-06-22T14:44:09;100145.00;;;28.80
13570;BMP180;6856;51.460;7.158;2023-06-22T14:46:45;100165.00;;;28.80
13570;BMP180;6856;51.460;7.158;2023-06-22T14:49:19;100162.00;;;28.80
13570;BMP180;6856;51.460;7.158;2023-06-22T14:51:55;100158.00;;;28.70
13570;BMP180;6856;51.460;7.158;2023-06-22T14:54:30;100156.00;;;28.80
13570;BMP180;6856;51.460;7.158;2023-06-22T14:57:06;100149.00;;;28.70
13570;BMP180;6856;51.460;7.158;2023-06-22T14:59:40;100145.00;;;28.70